Time;durP1;ratioP1;P1;durP2;ratioP2;P2;SDS_P1;SDS_P2;PMS_P1;PMS_P2;Temp;Humidity;BMP_temperature;BMP_pressure;BME280_temperature;BME280_humidity;BME280_pressure;Samples;Min_cycle;Max_cycle;Signal;HPM_P1;HPM_P2
2023/11/29 00:03:08;;;;;;;13.90;12.57;;;-0.20;99.90;;;0.31;100.00;97118.34;10187439;28;20275;-70
2023/11/29 00:08:11;;;;;;;13.47;12.17;;;-0.20;99.90;;;0.38;100.00;97124.78;10188433;29;20335;-68
2023/11/29 00:13:19;;;;;;;12.53;11.27;;;-0.20;99.90;;;0.48;100.00;97126.41;10185077;28;20236;-67
2023/11/29 00:18:24;;;;;;;13.37;12.07;;;-0.10;99.90;;;0.43;100.00;97119.38;10179981;28;20331;-70
2023/11/29 00:23:27;;;;;;;13.77;11.43;;;-0.10;99.90;;;0.54;100.00;97114.34;10184525;28;20250;-71
2023/11/29 00:28:31;;;;;;;12.93;11.53;;;-0.10;99.90;;;0.53;100.00;97107.56;10183288;28;20227;-70
2023/11/29 00:33:37;;;;;;;11.77;10.67;;;-0.20;99.90;;;0.45;100.00;97105.28;10183708;28;20240;-68
2023/11/29 00:38:40;;;;;;;13.90;12.50;;;-0.20;99.90;;;0.35;100.00;97102.78;10191229;28;20255;-67
2023/11/29 00:43:43;;;;;;;13.13;11.83;;;-0.20;99.90;;;0.35;100.00;97090.22;10193285;28;20328;-69
2023/11/29 00:48:47;;;;;;;13.97;12.60;;;-0.20;99.90;;;0.38;100.00;97100.53;10190021;29;20594;-70
2023/11/29 00:53:51;;;;;;;15.27;13.67;;;-0.20;99.90;;;0.42;100.00;97086.56;10191984;28;21315;-70
2023/11/29 00:58:54;;;;;;;15.27;13.77;;;-0.20;99.90;;;0.50;100.00;97097.28;10190927;28;20232;-69
2023/11/29 01:04:00;;;;;;;15.43;13.90;;;-0.10;99.90;;;0.45;100.00;97096.88;10192736;28;20241;-71
2023/11/29 01:09:06;;;;;;;15.47;13.87;;;-0.10;99.90;;;0.39;100.00;97099.75;10200467;28;21546;-71
2023/11/29 01:14:09;;;;;;;15.90;14.37;;;-0.10;99.90;;;0.47;100.00;97104.56;10196669;28;20976;-71
2023/11/29 01:19:14;;;;;;;15.63;13.97;;;-0.10;99.90;;;0.42;100.00;97107.56;10201157;28;20237;-68
2023/11/29 01:24:17;;;;;;;15.13;13.60;;;-0.10;99.90;;;0.41;100.00;97100.78;10200344;28;20225;-71
2023/11/29 01:29:21;;;;;;;14.77;13.27;;;-0.20;99.90;;;0.45;100.00;97105.28;10201019;28;20890;-70
2023/11/29 01:34:25;;;;;;;15.17;13.63;;;-0.20;99.90;;;0.39;100.00;97103.91;10206429;28;20766;-71
2023/11/29 01:39:28;;;;;;;15.57;14.07;;;-0.10;99.90;;;0.44;100.00;97095.13;10195384;28;20709;-71
2023/11/29 01:44:32;;;;;;;16.83;15.13;;;-0.10;99.90;;;0.42;100.00;97092.47;10187242;28;20659;-71
2023/11/29 01:49:37;;;;;;;16.20;14.70;;;-0.10;99.90;;;0.38;100.00;97103.03;10190842;28;20314;-69
2023/11/29 01:54:40;;;;;;;16.27;14.57;;;-0.20;99.90;;;0.38;100.00;97095.50;10187516;28;20237;-71
2023/11/29 01:59:43;;;;;;;15.80;14.30;;;-0.10;99.90;;;0.44;100.00;97080.91;10191276;28;20231;-71
2023/11/29 02:04:48;;;;;;;16.00;14.33;;;-0.10;99.90;;;0.48;100.00;97093.75;10186984;28;20263;-71
2023/11/29 02:09:51;;;;;;;15.73;14.20;;;-0.20;99.90;;;0.36;100.00;97093.59;10188029;29;20243;-70
2023/11/29 02:14:57;;;;;;;15.47;13.90;;;-0.20;99.90;;;0.44;100.00;97080.91;10190844;28;20244;-71
2023/11/29 02:20:03;;;;;;;17.20;15.40;;;-0.20;99.90;;;0.41;100.00;97090.72;10185568;29;20751;-70
2023/11/29 02:25:08;;;;;;;17.37;15.57;;;-0.10;99.90;;;0.42;100.00;97084.06;10204431;28;20236;-72
2023/11/29 02:30:12;;;;;;;16.80;15.10;;;-0.20;99.90;;;0.41;100.00;97085.69;10196030;28;20233;-70
2023/11/29 02:35:16;;;;;;;16.00;14.40;;;-0.20;99.90;;;0.35;100.00;97094.38;10195390;28;20236;-70
2023/11/29 02:40:20;;;;;;;15.60;13.90;;;-0.20;99.90;;;0.39;100.00;97097.25;10203436;28;20231;-72
2023/11/29 02:45:23;;;;;;;16.50;14.83;;;-0.20;99.90;;;0.43;100.00;97083.31;10195153;28;20240;-72
2023/11/29 02:50:27;;;;;;;16.53;14.93;;;-0.10;99.90;;;0.45;100.00;97087.69;10197307;28;20243;-70
2023/11/29 02:55:31;;;;;;;15.87;14.13;;;-0.20;99.90;;;0.39;100.00;97077.13;10196696;28;20240;-70
2023/11/29 03:00:34;;;;;;;15.70;14.20;;;-0.20;99.90;;;0.37;100.00;97073.66;10195777;28;20227;-70
2023/11/29 03:05:37;;;;;;;16.73;14.73;;;-0.20;99.90;;;0.34;100.00;97068.34;10192148;28;20310;-70
2023/11/29 03:10:42;;;;;;;16.47;14.77;;;-0.20;99.90;;;0.25;100.00;97061.69;10202800;28;20276;-70
2023/11/29 03:15:45;;;;;;;16.93;14.53;;;-0.30;99.90;;;0.26;100.00;97061.81;10192061;28;20634;-68
2023/11/29 03:20:48;;;;;;;15.93;14.13;;;-0.30;99.90;;;0.31;100.00;97059.66;10188788;28;20232;-71
2023/11/29 03:25:53;;;;;;;16.43;14.73;;;-0.30;99.90;;;0.21;100.00;97074.00;10200892;28;20292;-69
2023/11/29 03:30:57;;;;;;;17.10;15.27;;;-0.40;99.90;;;0.18;100.00;97055.28;10193734;28;20228;-71
2023/11/29 03:36:00;;;;;;;16.23;14.53;;;-0.40;99.90;;;0.20;100.00;97056.25;10195350;28;20262;-70
2023/11/29 03:41:05;;;;;;;16.93;15.00;;;-0.40;99.90;;;0.13;100.00;97061.53;10183223;28;20255;-71
2023/11/29 03:46:08;;;;;;;16.00;14.33;;;-0.50;99.90;;;0.13;100.00;97059.03;10182992;28;20238;-70
2023/11/29 03:51:11;;;;;;;16.13;14.43;;;-0.50;99.90;;;0.09;100.00;97064.56;10186802;28;20329;-72
2023/11/29 03:56:16;;;;;;;16.00;14.43;;;-0.50;99.90;;;0.16;100.00;97046.72;10185747;28;20306;-71
2023/11/29 04:01:19;;;;;;;16.73;14.93;;;-0.50;99.90;;;0.23;100.00;97051.53;10187234;29;20323;-70
2023/11/29 04:06:25;;;;;;;16.63;14.93;;;-0.40;99.90;;;-0.02;100.00;97054.47;10194672;28;20802;-71
2023/11/29 04:11:30;;;;;;;16.53;14.33;;;-0.60;99.90;;;-0.09;100.00;97049.69;10247339;28;20354;-70
2023/11/29 04:16:35;;;;;;;17.53;14.83;;;-0.70;99.90;;;0.08;100.00;97047.72;10196911;28;20237;-70
2023/11/29 04:21:38;;;;;;;18.00;15.63;;;-0.60;99.90;;;0.33;100.00;97038.94;10191411;28;20526;-69
2023/11/29 04:26:43;;;;;;;17.87;15.13;;;-0.50;99.90;;;0.25;100.00;97022.34;10192573;28;20323;-71
2023/11/29 04:31:46;;;;;;;18.27;16.23;;;-0.50;99.90;;;0.10;100.00;97026.13;10192093;28;20240;-71
2023/11/29 04:36:49;;;;;;;19.43;15.70;;;-0.50;99.90;;;0.03;100.00;97022.22;10191081;28;20334;-71
2023/11/29 04:41:54;;;;;;;18.90;15.00;;;-0.50;99.90;;;0.09;100.00;97011.81;10190020;28;20246;-70
2023/11/29 04:46:58;;;;;;;17.77;15.37;;;-0.60;99.90;;;-0.11;100.00;97008.50;10188802;28;20856;-71
2023/11/29 04:52:01;;;;;;;16.70;14.53;;;-0.70;99.90;;;-0.12;100.00;97023.44;10191662;28;20295;-71
2023/11/29 04:57:06;;;;;;;17.33;15.17;;;-0.70;99.90;;;-0.23;100.00;97009.97;10199483;28;20246;-70
2023/11/29 05:02:09;;;;;;;17.60;15.50;;;-0.90;99.90;;;-0.47;100.00;97012.19;10204378;28;20222;-70
2023/11/29 05:07:13;;;;;;;20.37;15.43;;;-1.10;99.90;;;-0.51;100.00;97010.19;10184945;28;20233;-71
2023/11/29 05:12:17;;;;;;;19.63;15.97;;;-1.10;99.90;;;-0.62;100.00;97005.88;10187716;28;21920;-71
2023/11/29 05:17:20;;;;;;;18.57;14.67;;;-1.20;99.90;;;-0.52;100.00;97010.03;10192359;28;20606;-71
2023/11/29 05:22:23;;;;;;;16.63;14.70;;;-1.10;99.90;;;-0.51;100.00;97002.66;10163274;28;20241;-70
2023/11/29 05:27:28;;;;;;;18.33;15.27;;;-1.10;99.90;;;-0.43;100.00;97005.78;10192976;28;21967;-70
2023/11/29 05:32:32;;;;;;;19.53;15.43;;;-1.00;99.90;;;-0.38;100.00;97003.69;10178870;28;20240;-69
2023/11/29 05:37:35;;;;;;;19.27;15.47;;;-0.90;99.90;;;-0.34;100.00;97005.72;10191446;28;20233;-70
2023/11/29 05:42:40;;;;;;;19.93;15.60;;;-0.80;99.90;;;-0.28;100.00;97012.13;10194122;28;20223;-73
2023/11/29 05:47:43;;;;;;;19.17;17.00;;;-0.70;99.90;;;-0.14;100.00;97019.91;10201481;28;20241;-70
2023/11/29 05:52:46;;;;;;;20.27;16.77;;;-0.60;99.90;;;-0.03;100.00;97030.13;10194076;28;20233;-69
2023/11/29 05:57:51;;;;;;;23.83;18.40;;;-0.60;99.90;;;0.25;100.00;97017.31;10176990;28;20247;-70
2023/11/29 06:02:54;;;;;;;22.80;18.47;;;-0.40;99.90;;;0.10;100.00;97016.94;10285821;28;20237;-69
2023/11/29 06:07:58;;;;;;;31.40;25.37;;;-0.50;99.90;;;0.05;100.00;97009.78;10200643;28;20240;-70
2023/11/29 06:13:03;;;;;;;20.60;17.73;;;-0.50;99.90;;;-0.01;100.00;97007.63;10159324;28;21042;-70
2023/11/29 06:18:08;;;;;;;25.37;19.47;;;-0.50;99.90;;;-0.07;100.00;97009.63;10168417;28;20318;-70
2023/11/29 06:23:12;;;;;;;19.87;16.33;;;-0.50;99.90;;;-0.04;100.00;96995.69;10321337;28;20236;-71
2023/11/29 06:28:16;;;;;;;22.03;16.37;;;-0.50;99.90;;;0.09;100.00;97005.16;10190439;28;20232;-69
2023/11/29 06:33:19;;;;;;;20.13;16.33;;;-0.40;99.90;;;0.08;100.00;97002.50;10191067;29;20340;-71
2023/11/29 06:38:23;;;;;;;19.77;16.50;;;-0.40;99.90;;;0.05;100.00;97013.16;10186461;29;20240;-72
2023/11/29 06:43:27;;;;;;;20.17;17.50;;;-0.50;99.90;;;0.02;100.00;97010.41;10188874;29;20727;-72
2023/11/29 06:48:31;;;;;;;20.23;17.20;;;-0.40;99.90;;;0.21;100.00;97010.31;10192371;29;20244;-69
2023/11/29 06:53:37;;;;;;;19.20;16.53;;;-0.40;99.90;;;0.19;100.00;96996.72;10191722;28;20225;-71
2023/11/29 06:58:41;;;;;;;22.53;18.00;;;-0.30;99.90;;;-0.02;100.00;97006.75;10190833;29;20252;-70
2023/11/29 07:03:45;;;;;;;20.47;16.63;;;-0.50;99.90;;;0.01;100.00;97000.25;10190157;29;20227;-70
2023/11/29 07:08:48;;;;;;;25.00;19.90;;;-0.50;99.90;;;0.23;100.00;97003.78;10189918;28;20241;-71
2023/11/29 07:13:53;;;;;;;22.63;18.03;;;-0.40;99.90;;;0.25;100.00;97014.81;10174807;28;20230;-70
2023/11/29 07:18:56;;;;;;;25.53;18.83;;;-0.30;99.90;;;0.22;100.00;97012.06;10177739;28;20683;-73
2023/11/29 07:23:59;;;;;;;23.67;17.83;;;-0.30;99.90;;;0.10;100.00;97011.91;10247468;28;20643;-70
2023/11/29 07:29:06;;;;;;;23.77;20.07;;;-0.40;99.90;;;0.06;100.00;97014.03;10150006;28;20320;-72
2023/11/29 07:34:09;;;;;;;24.73;19.83;;;-0.40;99.90;;;0.08;100.00;97022.59;10245341;28;20293;-71
2023/11/29 07:39:13;;;;;;;23.17;18.83;;;-0.40;99.90;;;0.31;100.00;97021.97;10183918;28;20772;-69
2023/11/29 07:44:17;;;;;;;25.60;22.17;;;-0.30;99.90;;;0.30;100.00;97026.13;10184392;28;20588;-70
2023/11/29 07:49:21;;;;;;;23.57;20.53;;;-0.20;99.90;;;0.47;100.00;97017.47;10183983;28;20231;-70
2023/11/29 07:54:24;;;;;;;23.73;19.27;;;-0.10;99.90;;;0.48;100.00;97020.84;10187679;28;20735;-70
2023/11/29 07:59:29;;;;;;;23.27;18.47;;;-0.10;99.90;;;0.41;100.00;97019.47;10181917;28;20358;-71
2023/11/29 08:04:32;;;;;;;19.30;15.77;;;-0.10;99.90;;;0.43;100.00;97008.78;10185174;28;20772;-70
2023/11/29 08:09:36;;;;;;;24.27;18.67;;;-0.10;99.90;;;0.48;100.00;97013.31;10177505;28;20631;-70
2023/11/29 08:14:40;;;;;;;20.73;17.73;;;0.00;99.90;;;0.48;100.00;97010.78;10184178;28;20228;-71
2023/11/29 08:19:43;;;;;;;25.07;18.40;;;0.10;99.90;;;0.64;100.00;96996.19;10186193;28;20325;-74
2023/11/29 08:24:47;;;;;;;22.00;18.07;;;0.30;99.90;;;0.79;100.00;96989.88;10184643;28;22432;-70
2023/11/29 08:29:52;;;;;;;21.07;16.00;;;0.60;99.90;;;0.97;100.00;97009.69;10180586;28;20659;-69
2023/11/29 08:34:55;;;;;;;18.50;15.20;;;0.60;99.90;;;0.86;100.00;97009.75;10182998;28;20336;-71
2023/11/29 08:40:00;;;;;;;15.73;14.13;;;0.60;99.90;;;0.82;100.00;97005.22;10186323;28;20780;-70
2023/11/29 08:45:05;;;;;;;15.87;14.00;;;0.50;99.90;;;0.88;100.00;97005.69;10183423;28;20231;-69
2023/11/29 08:50:10;;;;;;;14.40;12.87;;;0.60;99.90;;;1.02;100.00;97005.94;10183226;28;20233;-72
2023/11/29 08:55:13;;;;;;;22.20;17.47;;;0.70;99.90;;;1.16;100.00;97009.53;10186270;28;20244;-70
2023/11/29 09:00:20;;;;;;;18.47;16.37;;;0.70;99.90;;;1.10;100.00;97003.25;10190536;28;20229;-72
2023/11/29 09:05:24;;;;;;;20.57;17.27;;;0.70;99.90;;;1.27;100.00;97008.75;10191751;28;20286;-71
2023/11/29 09:10:29;;;;;;;22.70;17.07;;;0.80;99.90;;;1.62;100.00;97001.41;10187839;28;20259;-69
2023/11/29 09:15:34;;;;;;;15.27;13.20;;;1.10;99.90;;;1.82;100.00;96999.53;10185605;28;20236;-70
2023/11/29 09:20:40;;;;;;;14.30;12.07;;;1.20;99.90;;;1.73;100.00;96990.50;10189853;28;20248;-71
2023/11/29 09:25:43;;;;;;;13.87;11.27;;;1.10;99.90;;;1.81;100.00;97001.19;10188249;28;20739;-69
2023/11/29 09:30:48;;;;;;;10.97;9.87;;;1.20;99.90;;;1.61;100.00;97003.81;10189121;28;20229;-69
2023/11/29 09:35:51;;;;;;;11.20;10.10;;;1.20;99.90;;;1.72;100.00;96988.78;10186981;28;20268;-68
2023/11/29 09:40:55;;;;;;;10.33;9.33;;;1.20;99.90;;;1.99;100.00;96984.94;10188250;28;20320;-68
2023/11/29 09:46:00;;;;;;;10.63;9.63;;;1.40;99.90;;;1.88;100.00;96984.88;10190051;28;22010;-68
2023/11/29 09:51:04;;;;;;;9.33;8.43;;;1.40;99.90;;;2.06;100.00;96977.81;10174300;28;20229;-70
2023/11/29 09:56:09;;;;;;;7.97;7.27;;;1.40;99.90;;;2.06;100.00;96980.34;10171563;28;20252;-69
2023/11/29 10:01:15;;;;;;;7.40;6.80;;;1.50;99.90;;;2.28;100.00;96988.75;10248400;28;20229;-70
2023/11/29 10:06:19;;;;;;;7.47;6.87;;;1.60;99.90;;;2.47;100.00;96975.88;10189203;28;20739;-70
2023/11/29 10:11:22;;;;;;;7.37;6.67;;;1.60;99.90;;;2.32;97.68;96964.63;10187042;28;20225;-69
2023/11/29 10:16:28;;;;;;;7.73;7.13;;;1.60;99.90;;;2.05;100.00;96966.00;10199617;28;20264;-70
2023/11/29 10:21:31;;;;;;;8.30;7.60;;;1.50;99.90;;;1.78;97.98;96956.50;10189652;28;20230;-70
2023/11/29 10:26:35;;;;;;;7.90;7.07;;;1.40;99.90;;;1.66;97.19;96953.03;10182573;28;20288;-71
2023/11/29 10:31:39;;;;;;;7.30;6.70;;;1.20;99.90;;;1.87;100.00;96953.78;10186064;28;20603;-69
2023/11/29 10:36:43;;;;;;;6.80;6.20;;;1.30;99.90;;;2.08;100.00;96957.03;10184203;28;20280;-69
2023/11/29 10:41:52;;;;;;;6.40;5.90;;;1.50;99.90;;;2.20;100.00;96955.44;10186728;28;20276;-71
2023/11/29 10:47:04;;;;;;;6.60;6.10;;;1.60;99.90;;;2.19;98.18;96943.56;10184714;28;20323;-69
2023/11/29 10:52:08;;;;;;;6.63;6.03;;;1.60;99.90;;;2.29;100.00;96944.25;10183855;28;20411;-70
2023/11/29 10:57:13;;;;;;;6.10;5.60;;;1.70;99.90;;;2.35;99.86;96944.72;10180833;28;20240;-70
2023/11/29 11:02:18;;;;;;;6.40;5.90;;;1.70;99.90;;;2.24;98.73;96936.34;10189355;28;20232;-70
2023/11/29 11:07:40;;;;;;;6.30;5.70;;;1.70;99.90;;;2.21;96.76;96936.13;10185832;28;20241;-69
2023/11/29 11:12:44;;;;;;;5.93;5.50;;;1.70;99.90;;;2.34;100.00;96926.16;10183126;28;20225;-73
2023/11/29 11:18:25;;;;;;;6.70;6.20;;;1.80;99.90;;;2.44;100.00;96916.00;10188669;28;20244;-69
2023/11/29 11:23:29;;;;;;;7.10;6.47;;;1.80;99.90;;;2.42;100.00;96926.75;10163564;28;20228;-70
2023/11/29 11:28:35;;;;;;;7.30;6.60;;;1.80;99.90;;;2.43;99.30;96923.44;10193117;28;20232;-71
2023/11/29 11:34:11;;;;;;;6.90;6.17;;;1.90;99.90;;;2.66;98.00;96898.25;10199504;28;20234;-70
2023/11/29 11:39:14;;;;;;;6.17;5.77;;;2.20;99.90;;;2.71;96.89;96896.91;10200573;28;20869;-70
2023/11/29 11:44:18;;;;;;;6.30;5.80;;;2.20;99.90;;;2.88;94.75;96887.16;10182348;28;20233;-69
2023/11/29 11:49:22;;;;;;;6.13;5.63;;;2.40;99.90;;;2.89;94.86;96892.31;10198168;28;20237;-70
2023/11/29 11:54:25;;;;;;;6.70;6.20;;;2.30;99.90;;;2.92;96.01;96869.81;10193209;28;20233;-70
2023/11/29 11:59:28;;;;;;;6.93;6.43;;;2.30;99.90;;;2.87;95.63;96862.69;10192070;28;20336;-69
2023/11/29 12:04:33;;;;;;;7.60;7.00;;;2.30;99.90;;;2.86;96.47;96856.78;10187843;28;20791;-72
2023/11/29 12:09:36;;;;;;;7.07;6.57;;;2.30;99.90;;;2.76;92.47;96863.59;10186694;28;20228;-73
2023/11/29 12:14:40;;;;;;;6.90;6.40;;;2.30;99.90;;;2.71;90.94;96866.63;10184435;28;20917;-71
2023/11/29 12:19:47;;;;;;;6.77;6.27;;;2.20;99.90;;;2.77;95.05;96857.75;10183457;28;20221;-69
2023/11/29 12:24:51;;;;;;;6.13;5.67;;;2.20;99.90;;;2.84;95.42;96853.25;10186348;28;20697;-71
2023/11/29 12:29:58;;;;;;;6.17;5.57;;;2.20;99.90;;;2.97;96.53;96851.56;10186462;28;20408;-68
2023/11/29 12:35:04;;;;;;;6.73;6.23;;;2.50;99.90;;;3.30;99.27;96856.44;10187675;28;20231;-70
2023/11/29 12:40:10;;;;;;;6.80;6.20;;;2.70;99.90;;;3.48;97.70;96853.41;10190377;28;20283;-72
2023/11/29 12:45:14;;;;;;;5.30;4.90;;;2.80;99.90;;;3.43;94.38;96847.16;10192984;28;20235;-70
2023/11/29 12:50:19;;;;;;;6.13;5.63;;;2.80;99.90;;;3.39;93.14;96839.38;10187864;28;20237;-68
2023/11/29 12:55:22;;;;;;;6.17;5.60;;;2.90;99.90;;;3.70;98.23;96838.91;10190414;28;20235;-69
2023/11/29 13:00:26;;;;;;;7.43;6.60;;;3.00;99.90;;;3.61;94.62;96831.59;10191644;28;20233;-71
2023/11/29 13:05:30;;;;;;;6.10;5.60;;;3.10;99.90;;;3.75;96.96;96824.03;10187967;28;20232;-70
2023/11/29 13:10:33;;;;;;;5.60;5.20;;;3.20;99.90;;;3.77;90.57;96809.84;10192562;28;20316;-72
2023/11/29 13:15:36;;;;;;;7.23;5.70;;;3.30;99.90;;;3.83;98.60;96820.38;10193547;28;20231;-70
2023/11/29 13:20:41;;;;;;;5.40;5.00;;;3.30;99.90;;;3.73;92.15;96801.22;10189189;28;20252;-72
2023/11/29 13:25:45;;;;;;;5.37;4.97;;;3.20;99.90;;;3.67;94.98;96799.94;10194328;28;20379;-71
2023/11/29 13:30:48;;;;;;;5.70;5.20;;;3.10;99.90;;;3.63;92.59;96800.50;10193528;28;20229;-69
2023/11/29 13:35:53;;;;;;;5.10;4.70;;;3.10;99.90;;;3.67;92.58;96808.38;10193698;28;20229;-70
2023/11/29 13:40:56;;;;;;;6.07;5.57;;;3.20;99.90;;;3.71;95.14;96810.34;10192789;28;20229;-72
2023/11/29 13:45:59;;;;;;;5.47;5.07;;;3.20;99.90;;;3.82;99.79;96806.00;10188125;28;20233;-71
2023/11/29 13:51:04;;;;;;;5.60;5.13;;;3.20;99.90;;;3.78;90.77;96802.41;10255461;28;20225;-69
2023/11/29 13:56:10;;;;;;;5.27;4.87;;;3.20;99.90;;;3.64;89.52;96800.59;10193662;28;20232;-73
2023/11/29 14:01:13;;;;;;;5.00;4.60;;;3.00;99.90;;;3.53;91.93;96799.88;10191714;28;20722;-71
2023/11/29 14:06:18;;;;;;;5.20;4.80;;;3.00;99.90;;;3.49;94.76;96797.94;10190408;28;20241;-72
2023/11/29 14:11:21;;;;;;;5.30;4.80;;;2.90;99.90;;;3.48;95.36;96801.22;10181577;28;20243;-71
2023/11/29 14:16:24;;;;;;;5.40;4.60;;;2.90;99.90;;;3.46;93.53;96807.81;10184172;28;20725;-72
2023/11/29 14:21:28;;;;;;;5.40;5.00;;;2.90;99.90;;;3.48;94.52;96810.47;10189032;28;20245;-70
2023/11/29 14:26:32;;;;;;;6.40;5.90;;;2.90;99.90;;;3.42;95.86;96810.94;10190834;28;20263;-71
2023/11/29 14:31:35;;;;;;;7.23;6.63;;;2.90;99.90;;;3.44;98.61;96811.03;10191120;28;20257;-72
2023/11/29 14:36:44;;;;;;;20.03;17.93;;;2.80;99.90;;;3.28;93.34;96811.66;10188994;28;20236;-72
2023/11/29 14:41:47;;;;;;;15.10;13.40;;;2.70;99.90;;;3.34;99.30;96809.53;10181102;28;20222;-72
2023/11/29 14:46:50;;;;;;;8.83;7.70;;;2.70;99.90;;;3.31;98.78;96814.38;10185829;28;20233;-69
2023/11/29 14:51:55;;;;;;;6.90;5.83;;;2.70;99.90;;;3.25;98.27;96816.50;10253252;28;20233;-71
2023/11/29 14:56:58;;;;;;;5.47;5.07;;;2.60;99.90;;;3.16;97.22;96812.56;10189330;28;20697;-71
2023/11/29 15:02:01;;;;;;;6.90;6.30;;;2.60;99.90;;;3.17;99.96;96811.78;10199343;28;20272;-71
2023/11/29 15:07:06;;;;;;;6.47;5.83;;;2.50;99.90;;;3.09;98.13;96815.47;10181501;28;20287;-69
2023/11/29 15:12:09;;;;;;;6.67;5.93;;;2.40;99.90;;;3.13;100.00;96817.41;10184727;28;20237;-71
2023/11/29 15:17:13;;;;;;;6.67;6.17;;;2.50;99.90;;;3.09;100.00;96814.56;10185373;29;20237;-72
2023/11/29 15:22:17;;;;;;;8.83;7.93;;;2.50;99.90;;;3.03;100.00;96817.53;10180022;28;20241;-72
2023/11/29 15:27:23;;;;;;;7.40;6.80;;;2.50;99.90;;;2.98;100.00;96821.41;10185330;28;20236;-72
2023/11/29 15:32:26;;;;;;;8.87;8.13;;;2.40;99.90;;;2.98;100.00;96812.97;10177294;28;20236;-70
2023/11/29 15:37:31;;;;;;;7.60;7.00;;;2.40;99.90;;;2.97;100.00;96816.25;10179850;28;20233;-70
2023/11/29 15:42:34;;;;;;;8.17;7.57;;;2.40;99.90;;;2.96;100.00;96820.41;10187459;28;20232;-69
2023/11/29 15:47:37;;;;;;;6.73;6.13;;;2.40;99.90;;;2.90;100.00;96827.56;10177201;28;20240;-72
2023/11/29 15:52:42;;;;;;;7.97;7.20;;;2.30;99.90;;;2.86;100.00;96826.50;10179284;28;20244;-70
2023/11/29 15:57:45;;;;;;;22.43;17.20;;;2.30;99.90;;;2.85;100.00;96813.75;10172283;28;20233;-70
2023/11/29 16:02:48;;;;;;;8.63;7.83;;;2.20;99.90;;;2.71;100.00;96820.34;10180217;28;20225;-70
2023/11/29 16:07:53;;;;;;;10.13;8.60;;;2.10;99.90;;;2.67;100.00;96814.22;10184308;28;20732;-73
2023/11/29 16:12:57;;;;;;;10.87;9.87;;;2.00;99.90;;;2.48;100.00;96813.69;10189701;28;20603;-71
2023/11/29 16:18:00;;;;;;;10.37;9.47;;;1.90;99.90;;;2.50;100.00;96818.88;10188823;28;20330;-71
2023/11/29 16:23:05;;;;;;;13.27;11.97;;;1.90;99.90;;;2.48;100.00;96822.13;10205669;28;20320;-70
2023/11/29 16:28:08;;;;;;;15.73;14.13;;;1.90;99.90;;;2.36;100.00;96816.22;10207097;28;20236;-70
2023/11/29 16:33:14;;;;;;;12.10;10.80;;;1.80;99.90;;;2.31;100.00;96822.59;10198018;28;20261;-71
2023/11/29 16:38:19;;;;;;;18.90;13.10;;;1.80;99.90;;;2.33;100.00;96826.09;10248778;28;20755;-70
2023/11/29 16:43:22;;;;;;;10.93;9.77;;;1.90;99.90;;;2.31;100.00;96812.50;10212864;28;20234;-69
2023/11/29 16:48:25;;;;;;;11.17;9.83;;;1.80;99.90;;;2.23;100.00;96817.00;10205136;28;20343;-68
2023/11/29 16:53:30;;;;;;;13.13;10.53;;;1.80;99.90;;;2.32;100.00;96816.78;10202079;28;20334;-71
2023/11/29 16:58:35;;;;;;;10.90;8.83;;;1.80;99.90;;;2.27;100.00;96814.72;10204197;28;20233;-69
2023/11/29 17:03:38;;;;;;;11.93;9.03;;;1.80;99.90;;;2.30;100.00;96810.75;10210985;28;20321;-70
2023/11/29 17:08:43;;;;;;;13.23;11.37;;;1.80;99.90;;;2.32;100.00;96814.28;10195535;28;20291;-67
2023/11/29 17:13:46;;;;;;;41.13;24.47;;;1.80;99.90;;;2.35;100.00;96829.63;10224686;28;20227;-67
2023/11/29 17:18:49;;;;;;;24.67;17.57;;;1.80;99.90;;;2.38;100.00;96813.84;10206156;28;20262;-69
2023/11/29 17:23:56;;;;;;;15.13;13.43;;;1.80;99.90;;;2.50;100.00;96802.09;10205260;28;20225;-67
2023/11/29 17:28:59;;;;;;;10.70;9.70;;;1.90;99.90;;;2.38;100.00;96803.75;10198283;28;20232;-65
2023/11/29 17:34:02;;;;;;;10.27;9.27;;;1.80;99.90;;;2.28;100.00;96798.81;10211733;28;20233;-68
2023/11/29 17:39:06;;;;;;;39.97;25.50;;;1.70;99.90;;;2.17;100.00;96793.88;10191067;28;20235;-68
2023/11/29 17:44:09;;;;;;;24.07;18.77;;;1.70;99.90;;;2.17;100.00;96798.91;10190348;28;20295;-68
2023/11/29 17:49:13;;;;;;;19.43;17.40;;;1.70;99.90;;;2.21;100.00;96807.59;10197055;28;20233;-69
2023/11/29 17:54:17;;;;;;;11.83;10.43;;;1.70;99.90;;;2.20;100.00;96806.72;10186998;28;20236;-67
2023/11/29 17:59:21;;;;;;;16.97;15.20;;;1.60;99.90;;;2.19;100.00;96809.97;10188497;28;20326;-68
2023/11/29 18:04:24;;;;;;;12.17;11.07;;;1.60;99.90;;;2.21;100.00;96803.41;10191607;28;20221;-68
2023/11/29 18:09:28;;;;;;;11.10;10.10;;;1.60;99.90;;;2.11;100.00;96807.69;10192559;28;20312;-67
2023/11/29 18:14:31;;;;;;;9.70;8.80;;;1.50;99.90;;;2.16;100.00;96799.69;10188495;28;20229;-69
2023/11/29 18:19:34;;;;;;;7.53;6.93;;;1.50;99.90;;;1.93;100.00;96797.16;10185073;28;20326;-69
2023/11/29 18:24:39;;;;;;;6.37;5.47;;;1.40;99.90;;;1.87;100.00;96786.63;10188158;28;20308;-69
2023/11/29 18:29:43;;;;;;;7.60;7.00;;;1.40;99.90;;;1.84;100.00;96793.97;10180621;28;20237;-70
2023/11/29 18:34:47;;;;;;;11.63;8.97;;;1.30;99.90;;;1.86;100.00;96795.84;10187133;28;20614;-68
2023/11/29 18:39:51;;;;;;;7.77;7.17;;;1.30;99.90;;;1.86;100.00;96802.50;10182181;28;20230;-69
2023/11/29 18:44:54;;;;;;;9.50;8.70;;;1.30;99.90;;;1.76;100.00;96788.38;10185083;28;20245;-70
2023/11/29 18:49:58;;;;;;;10.97;9.97;;;1.20;99.90;;;1.75;100.00;96781.59;10251273;28;20231;-69
2023/11/29 18:55:03;;;;;;;9.70;8.80;;;1.20;99.90;;;1.66;100.00;96791.88;10187800;28;20802;-70
2023/11/29 19:00:08;;;;;;;13.83;12.43;;;1.10;99.90;;;1.53;100.00;96784.16;10184204;28;20237;-71
2023/11/29 19:05:12;;;;;;;10.60;9.67;;;1.00;99.90;;;1.51;100.00;96786.56;10181321;28;20240;-69
2023/11/29 19:10:17;;;;;;;9.80;8.93;;;1.00;99.90;;;1.56;100.00;96769.28;10186487;28;20256;-69
2023/11/29 19:15:20;;;;;;;13.07;11.97;;;1.00;99.90;;;1.58;100.00;96782.88;10189302;28;20236;-69
2023/11/29 19:20:24;;;;;;;13.60;12.23;;;1.00;99.90;;;1.57;100.00;96774.44;10181281;28;20233;-68
2023/11/29 19:25:28;;;;;;;11.80;10.60;;;1.00;99.90;;;1.54;100.00;96776.72;10184362;28;20229;-68
2023/11/29 19:30:31;;;;;;;11.87;10.93;;;0.90;99.90;;;1.50;100.00;96779.78;10177611;28;20230;-68
2023/11/29 19:35:36;;;;;;;37.20;28.27;;;0.90;99.90;;;1.44;100.00;96773.44;10176604;28;20603;-67
2023/11/29 19:40:40;;;;;;;18.83;16.83;;;0.80;99.90;;;1.44;100.00;96780.97;10178543;28;20311;-69
2023/11/29 19:45:44;;;;;;;20.73;18.53;;;0.80;99.90;;;1.31;100.00;96771.63;10182880;28;20729;-68
2023/11/29 19:50:48;;;;;;;19.43;15.70;;;0.70;99.90;;;1.30;100.00;96765.72;10172188;28;20344;-69
2023/11/29 19:55:52;;;;;;;21.03;18.40;;;0.70;99.90;;;1.34;100.00;96771.84;10180021;28;20286;-69
2023/11/29 20:00:56;;;;;;;25.03;19.90;;;0.80;99.90;;;1.34;100.00;96769.31;10183243;28;20233;-68
2023/11/29 20:05:59;;;;;;;17.90;16.00;;;0.70;99.90;;;1.36;100.00;96757.75;10177219;28;20434;-69
2023/11/29 20:11:07;;;;;;;19.90;17.80;;;0.70;99.90;;;1.28;100.00;96752.13;10186752;28;20294;-72
2023/11/29 20:16:11;;;;;;;24.00;21.50;;;0.70;99.90;;;1.27;100.00;96760.47;10190677;28;20229;-67
2023/11/29 20:21:15;;;;;;;21.73;19.63;;;0.70;99.90;;;1.23;100.00;96752.56;10184804;28;20965;-69
2023/11/29 20:26:20;;;;;;;21.57;17.37;;;0.70;99.90;;;1.28;100.00;96754.66;10177788;28;20233;-68
2023/11/29 20:31:23;;;;;;;27.43;19.80;;;0.70;99.90;;;1.27;100.00;96745.34;10181081;28;20442;-68
2023/11/29 20:36:27;;;;;;;16.30;14.57;;;0.70;99.90;;;1.27;100.00;96750.38;10182356;28;20244;-69
2023/11/29 20:41:32;;;;;;;15.10;13.53;;;0.70;99.90;;;1.22;100.00;96745.78;10177088;29;20238;-68
2023/11/29 20:46:35;;;;;;;10.10;9.10;;;0.60;99.90;;;1.13;100.00;96745.97;10177701;28;20380;-69
2023/11/29 20:51:38;;;;;;;9.17;8.27;;;0.50;99.90;;;1.20;100.00;96730.56;10178808;28;20824;-70
2023/11/29 20:56:42;;;;;;;8.43;7.67;;;0.50;99.90;;;1.03;100.00;96731.84;10185331;28;20334;-68
2023/11/29 21:01:46;;;;;;;8.87;8.07;;;0.50;99.90;;;1.00;100.00;96738.25;10173250;28;20234;-69